Terminal Aerodrome Forecast
Issued by NWS Kansas City/Pleasant Hill, MO

Current Version | Previous Version | Text Only | Print | Product List | Glossary On
Versions: 1 2 3 4 5 6 7 8 9 10 11 12 13
000
FTUS43 KEAX 242320
TAFMCI
TAF
KMCI 242320Z 2500/2524 35005KT P6SM VCTS SCT050CB BKN250
     FM250800 04007KT P6SM BKN250
     FM251400 07007KT P6SM BKN250=

USA.gov is the U.S. government's official web portal to all federal, state and local government web resources and services.